sensor_id;sensor_type;location;lat;lon;timestamp;temperature;humidity
70074;DHT22;57445;51.058;3.698;2023-05-21T00:00:22;16.40;91.10
70074;DHT22;57445;51.058;3.698;2023-05-21T00:02:50;16.40;91.40
70074;DHT22;57445;51.058;3.698;2023-05-21T00:05:19;16.20;91.80
70074;DHT22;57445;51.058;3.698;2023-05-21T00:07:46;16.20;92.10
70074;DHT22;57445;51.058;3.698;2023-05-21T00:10:14;16.10;92.40
70074;DHT22;57445;51.058;3.698;2023-05-21T00:12:42;16.00;92.60
70074;DHT22;57445;51.058;3.698;2023-05-21T00:15:10;15.90;92.80
70074;DHT22;57445;51.058;3.698;2023-05-21T00:17:37;15.80;93.10
70074;DHT22;57445;51.058;3.698;2023-05-21T00:20:06;15.80;93.20
70074;DHT22;57445;51.058;3.698;2023-05-21T00:22:35;15.80;93.20
70074;DHT22;57445;51.058;3.698;2023-05-21T00:25:03;15.80;93.40
70074;DHT22;57445;51.058;3.698;2023-05-21T00:27:31;15.80;93.60
70074;DHT22;57445;51.058;3.698;2023-05-21T00:29:59;15.70;93.80
70074;DHT22;57445;51.058;3.698;2023-05-21T00:32:26;15.70;93.80
70074;DHT22;57445;51.058;3.698;2023-05-21T00:34:54;15.50;94.30
70074;DHT22;57445;51.058;3.698;2023-05-21T00:37:23;15.40;94.50
70074;DHT22;57445;51.058;3.698;2023-05-21T00:39:52;15.40;94.50
70074;DHT22;57445;51.058;3.698;2023-05-21T00:42:20;15.40;94.70
70074;DHT22;57445;51.058;3.698;2023-05-21T00:44:52;15.30;94.80
70074;DHT22;57445;51.058;3.698;2023-05-21T00:47:20;15.40;94.90
70074;DHT22;57445;51.058;3.698;2023-05-21T00:49:48;15.30;95.00
70074;DHT22;57445;51.058;3.698;2023-05-21T00:52:18;15.20;94.90
70074;DHT22;57445;51.058;3.698;2023-05-21T00:54:48;15.10;95.20
70074;DHT22;57445;51.058;3.698;2023-05-21T00:57:17;15.00;95.50
70074;DHT22;57445;51.058;3.698;2023-05-21T00:59:46;14.90;95.70
70074;DHT22;57445;51.058;3.698;2023-05-21T01:02:14;14.90;95.90
70074;DHT22;57445;51.058;3.698;2023-05-21T01:04:43;14.90;95.80
70074;DHT22;57445;51.058;3.698;2023-05-21T01:07:11;15.00;95.70
70074;DHT22;57445;51.058;3.698;2023-05-21T01:09:39;14.90;95.90
70074;DHT22;57445;51.058;3.698;2023-05-21T01:12:07;14.90;95.90
70074;DHT22;57445;51.058;3.698;2023-05-21T01:14:36;14.90;95.60
70074;DHT22;57445;51.058;3.698;2023-05-21T01:17:04;14.90;95.60
70074;DHT22;57445;51.058;3.698;2023-05-21T01:19:35;14.80;95.70
70074;DHT22;57445;51.058;3.698;2023-05-21T01:22:03;14.80;95.80
70074;DHT22;57445;51.058;3.698;2023-05-21T01:24:33;14.70;95.80
70074;DHT22;57445;51.058;3.698;2023-05-21T01:27:01;14.80;95.90
70074;DHT22;57445;51.058;3.698;2023-05-21T01:29:31;14.80;95.70
70074;DHT22;57445;51.058;3.698;2023-05-21T01:32:01;14.70;95.90
70074;DHT22;57445;51.058;3.698;2023-05-21T01:34:34;14.70;96.00
70074;DHT22;57445;51.058;3.698;2023-05-21T01:37:07;14.80;95.80
70074;DHT22;57445;51.058;3.698;2023-05-21T01:39:43;14.80;95.70
70074;DHT22;57445;51.058;3.698;2023-05-21T01:42:15;14.80;95.80
70074;DHT22;57445;51.058;3.698;2023-05-21T01:44:44;14.70;96.10
70074;DHT22;57445;51.058;3.698;2023-05-21T01:47:13;14.70;96.10
70074;DHT22;57445;51.058;3.698;2023-05-21T01:49:42;14.60;96.30
70074;DHT22;57445;51.058;3.698;2023-05-21T01:52:10;14.60;96.40
70074;DHT22;57445;51.058;3.698;2023-05-21T01:54:38;14.70;96.30
70074;DHT22;57445;51.058;3.698;2023-05-21T01:57:08;14.60;96.50
70074;DHT22;57445;51.058;3.698;2023-05-21T01:59:35;14.70;96.40
70074;DHT22;57445;51.058;3.698;2023-05-21T02:02:04;14.80;96.30
70074;DHT22;57445;51.058;3.698;2023-05-21T02:04:31;14.70;96.50
70074;DHT22;57445;51.058;3.698;2023-05-21T02:06:59;14.60;96.70
70074;DHT22;57445;51.058;3.698;2023-05-21T02:09:27;14.60;96.80
70074;DHT22;57445;51.058;3.698;2023-05-21T02:11:55;14.50;97.00
70074;DHT22;57445;51.058;3.698;2023-05-21T02:14:24;14.50;97.00
70074;DHT22;57445;51.058;3.698;2023-05-21T02:16:52;14.50;97.00
70074;DHT22;57445;51.058;3.698;2023-05-21T02:19:21;14.80;97.20
70074;DHT22;57445;51.058;3.698;2023-05-21T02:21:49;14.40;97.20
70074;DHT22;57445;51.058;3.698;2023-05-21T02:24:16;14.40;97.20
70074;DHT22;57445;51.058;3.698;2023-05-21T02:26:44;14.30;97.40
70074;DHT22;57445;51.058;3.698;2023-05-21T02:29:13;14.30;97.50
70074;DHT22;57445;51.058;3.698;2023-05-21T02:31:42;14.20;97.50
70074;DHT22;57445;51.058;3.698;2023-05-21T02:34:11;14.30;97.60
70074;DHT22;57445;51.058;3.698;2023-05-21T02:36:39;14.20;97.60
70074;DHT22;57445;51.058;3.698;2023-05-21T02:39:06;14.30;97.60
70074;DHT22;57445;51.058;3.698;2023-05-21T02:41:34;14.40;97.50
70074;DHT22;57445;51.058;3.698;2023-05-21T02:44:03;14.60;97.40
70074;DHT22;57445;51.058;3.698;2023-05-21T02:46:31;14.30;97.60
70074;DHT22;57445;51.058;3.698;2023-05-21T02:48:59;14.20;97.80
70074;DHT22;57445;51.058;3.698;2023-05-21T02:51:28;14.20;98.00
70074;DHT22;57445;51.058;3.698;2023-05-21T02:53:56;14.10;98.20
70074;DHT22;57445;51.058;3.698;2023-05-21T02:56:24;14.40;98.30
70074;DHT22;57445;51.058;3.698;2023-05-21T02:58:52;14.00;98.40
70074;DHT22;57445;51.058;3.698;2023-05-21T03:01:20;14.00;98.50
70074;DHT22;57445;51.058;3.698;2023-05-21T03:03:47;14.00;98.50
70074;DHT22;57445;51.058;3.698;2023-05-21T03:06:16;14.00;98.60
70074;DHT22;57445;51.058;3.698;2023-05-21T03:08:44;14.00;98.60
70074;DHT22;57445;51.058;3.698;2023-05-21T03:11:12;14.10;98.60
70074;DHT22;57445;51.058;3.698;2023-05-21T03:13:40;14.10;98.50
70074;DHT22;57445;51.058;3.698;2023-05-21T03:16:08;14.00;98.60
70074;DHT22;57445;51.058;3.698;2023-05-21T03:18:36;14.00;98.80
70074;DHT22;57445;51.058;3.698;2023-05-21T03:21:04;13.90;98.90
70074;DHT22;57445;51.058;3.698;2023-05-21T03:23:33;13.90;99.00
70074;DHT22;57445;51.058;3.698;2023-05-21T03:26:01;14.00;99.00
70074;DHT22;57445;51.058;3.698;2023-05-21T03:28:29;14.00;99.00
70074;DHT22;57445;51.058;3.698;2023-05-21T03:30:57;14.00;99.00
70074;DHT22;57445;51.058;3.698;2023-05-21T03:33:25;14.40;99.30
70074;DHT22;57445;51.058;3.698;2023-05-21T03:35:53;13.90;99.50
70074;DHT22;57445;51.058;3.698;2023-05-21T03:38:21;13.90;99.60
70074;DHT22;57445;51.058;3.698;2023-05-21T03:40:53;13.90;99.60
70074;DHT22;57445;51.058;3.698;2023-05-21T03:43:20;13.90;99.80
70074;DHT22;57445;51.058;3.698;2023-05-21T03:45:48;13.90;99.90
70074;DHT22;57445;51.058;3.698;2023-05-21T03:48:18;13.80;99.90
70074;DHT22;57445;51.058;3.698;2023-05-21T03:50:46;13.80;99.90
70074;DHT22;57445;51.058;3.698;2023-05-21T03:53:14;13.90;99.90
70074;DHT22;57445;51.058;3.698;2023-05-21T03:55:42;13.90;99.90
70074;DHT22;57445;51.058;3.698;2023-05-21T03:58:13;13.90;99.90
70074;DHT22;57445;51.058;3.698;2023-05-21T04:00:40;13.80;99.90
70074;DHT22;57445;51.058;3.698;2023-05-21T04:03:08;13.80;99.90
70074;DHT22;57445;51.058;3.698;2023-05-21T04:05:36;13.80;99.90
70074;DHT22;57445;51.058;3.698;2023-05-21T04:08:04;13.90;99.90
70074;DHT22;57445;51.058;3.698;2023-05-21T04:10:32;13.80;99.90
70074;DHT22;57445;51.058;3.698;2023-05-21T04:13:00;13.70;99.90
70074;DHT22;57445;51.058;3.698;2023-05-21T04:15:29;13.60;99.90
70074;DHT22;57445;51.058;3.698;2023-05-21T04:17:57;13.60;99.90
70074;DHT22;57445;51.058;3.698;2023-05-21T04:20:30;13.60;99.90
70074;DHT22;57445;51.058;3.698;2023-05-21T04:22:58;13.70;99.90
70074;DHT22;57445;51.058;3.698;2023-05-21T04:25:29;13.70;99.90
70074;DHT22;57445;51.058;3.698;2023-05-21T04:27:56;13.80;99.90
70074;DHT22;57445;51.058;3.698;2023-05-21T04:30:24;13.90;99.90
70074;DHT22;57445;51.058;3.698;2023-05-21T04:32:55;14.00;99.90
70074;DHT22;57445;51.058;3.698;2023-05-21T04:35:25;14.00;99.90
70074;DHT22;57445;51.058;3.698;2023-05-21T04:37:52;14.10;99.90
70074;DHT22;57445;51.058;3.698;2023-05-21T04:40:20;14.10;99.90
70074;DHT22;57445;51.058;3.698;2023-05-21T04:42:49;14.40;99.90
70074;DHT22;57445;51.058;3.698;2023-05-21T04:45:17;14.40;99.80
70074;DHT22;57445;51.058;3.698;2023-05-21T04:47:45;14.50;99.90
70074;DHT22;57445;51.058;3.698;2023-05-21T04:50:14;14.10;99.90
70074;DHT22;57445;51.058;3.698;2023-05-21T04:52:42;14.40;99.90
70074;DHT22;57445;51.058;3.698;2023-05-21T04:55:11;14.30;99.90
70074;DHT22;57445;51.058;3.698;2023-05-21T04:57:39;14.20;99.90
70074;DHT22;57445;51.058;3.698;2023-05-21T05:00:07;14.10;99.90
70074;DHT22;57445;51.058;3.698;2023-05-21T05:02:35;14.10;99.90
70074;DHT22;57445;51.058;3.698;2023-05-21T05:05:03;14.10;99.90
70074;DHT22;57445;51.058;3.698;2023-05-21T05:07:32;14.10;99.90
70074;DHT22;57445;51.058;3.698;2023-05-21T05:10:00;14.20;99.90
70074;DHT22;57445;51.058;3.698;2023-05-21T05:12:27;14.40;99.90
70074;DHT22;57445;51.058;3.698;2023-05-21T05:14:55;14.50;99.90
70074;DHT22;57445;51.058;3.698;2023-05-21T05:17:22;14.50;99.90
70074;DHT22;57445;51.058;3.698;2023-05-21T05:19:50;14.50;99.90
70074;DHT22;57445;51.058;3.698;2023-05-21T05:22:18;14.50;99.90
70074;DHT22;57445;51.058;3.698;2023-05-21T05:24:47;14.60;99.90
70074;DHT22;57445;51.058;3.698;2023-05-21T05:27:16;14.60;99.90
70074;DHT22;57445;51.058;3.698;2023-05-21T05:29:44;14.70;99.90
70074;DHT22;57445;51.058;3.698;2023-05-21T05:32:11;14.80;99.90
70074;DHT22;57445;51.058;3.698;2023-05-21T05:34:39;14.90;99.90
70074;DHT22;57445;51.058;3.698;2023-05-21T05:37:12;14.80;99.90
70074;DHT22;57445;51.058;3.698;2023-05-21T05:39:40;14.70;99.90
70074;DHT22;57445;51.058;3.698;2023-05-21T05:42:09;14.80;99.90
70074;DHT22;57445;51.058;3.698;2023-05-21T05:44:37;15.10;99.90
70074;DHT22;57445;51.058;3.698;2023-05-21T05:47:04;15.30;99.90
70074;DHT22;57445;51.058;3.698;2023-05-21T05:49:35;15.60;99.10
70074;DHT22;57445;51.058;3.698;2023-05-21T05:52:03;15.90;98.50
70074;DHT22;57445;51.058;3.698;2023-05-21T05:54:31;16.10;98.50
70074;DHT22;57445;51.058;3.698;2023-05-21T05:56:58;16.40;97.70
70074;DHT22;57445;51.058;3.698;2023-05-21T05:59:27;16.70;97.10
70074;DHT22;57445;51.058;3.698;2023-05-21T06:01:55;16.70;97.10
70074;DHT22;57445;51.058;3.698;2023-05-21T06:04:23;16.60;97.00
70074;DHT22;57445;51.058;3.698;2023-05-21T06:06:51;16.70;96.90
70074;DHT22;57445;51.058;3.698;2023-05-21T06:09:19;16.90;96.80
70074;DHT22;57445;51.058;3.698;2023-05-21T06:11:47;17.20;96.90
70074;DHT22;57445;51.058;3.698;2023-05-21T06:14:15;18.10;95.60
70074;DHT22;57445;51.058;3.698;2023-05-21T06:16:44;19.50;93.80
70074;DHT22;57445;51.058;3.698;2023-05-21T06:19:12;19.00;92.50
70074;DHT22;57445;51.058;3.698;2023-05-21T06:21:39;18.20;93.90
70074;DHT22;57445;51.058;3.698;2023-05-21T06:24:07;17.60;94.80
70074;DHT22;57445;51.058;3.698;2023-05-21T06:26:35;16.90;95.60
70074;DHT22;57445;51.058;3.698;2023-05-21T06:29:02;17.00;96.20
70074;DHT22;57445;51.058;3.698;2023-05-21T06:31:30;17.20;96.20
70074;DHT22;57445;51.058;3.698;2023-05-21T06:33:59;17.00;96.50
70074;DHT22;57445;51.058;3.698;2023-05-21T06:36:27;17.80;95.60
70074;DHT22;57445;51.058;3.698;2023-05-21T06:38:57;18.70;94.70
70074;DHT22;57445;51.058;3.698;2023-05-21T06:41:29;18.50;94.00
70074;DHT22;57445;51.058;3.698;2023-05-21T06:43:56;19.60;93.80
70074;DHT22;57445;51.058;3.698;2023-05-21T06:46:28;19.40;92.50
70074;DHT22;57445;51.058;3.698;2023-05-21T06:48:56;19.20;92.40
70074;DHT22;57445;51.058;3.698;2023-05-21T06:51:27;18.80;93.70
70074;DHT22;57445;51.058;3.698;2023-05-21T06:53:59;18.60;93.50
70074;DHT22;57445;51.058;3.698;2023-05-21T06:56:27;18.20;94.30
70074;DHT22;57445;51.058;3.698;2023-05-21T06:58:55;18.80;93.90
70074;DHT22;57445;51.058;3.698;2023-05-21T07:01:27;19.70;92.40
70074;DHT22;57445;51.058;3.698;2023-05-21T07:03:55;19.50;92.80
70074;DHT22;57445;51.058;3.698;2023-05-21T07:06:23;21.00;91.20
70074;DHT22;57445;51.058;3.698;2023-05-21T07:08:52;20.50;90.20
70074;DHT22;57445;51.058;3.698;2023-05-21T07:11:20;19.70;91.60
70074;DHT22;57445;51.058;3.698;2023-05-21T07:13:47;19.80;91.40
70074;DHT22;57445;51.058;3.698;2023-05-21T07:16:15;19.40;92.10
70074;DHT22;57445;51.058;3.698;2023-05-21T07:18:44;18.30;93.80
70074;DHT22;57445;51.058;3.698;2023-05-21T07:21:11;17.70;94.70
70074;DHT22;57445;51.058;3.698;2023-05-21T07:23:44;17.70;95.00
70074;DHT22;57445;51.058;3.698;2023-05-21T07:26:13;17.60;94.90
70074;DHT22;57445;51.058;3.698;2023-05-21T07:28:40;17.70;95.00
70074;DHT22;57445;51.058;3.698;2023-05-21T07:31:08;17.50;95.30
70074;DHT22;57445;51.058;3.698;2023-05-21T07:33:37;17.40;95.70
70074;DHT22;57445;51.058;3.698;2023-05-21T07:36:05;17.60;95.50
70074;DHT22;57445;51.058;3.698;2023-05-21T07:38:33;17.80;95.20
70074;DHT22;57445;51.058;3.698;2023-05-21T07:41:00;17.70;94.80
70074;DHT22;57445;51.058;3.698;2023-05-21T07:43:29;17.70;95.20
70074;DHT22;57445;51.058;3.698;2023-05-21T07:45:57;17.60;95.20
70074;DHT22;57445;51.058;3.698;2023-05-21T07:48:26;18.00;95.10
70074;DHT22;57445;51.058;3.698;2023-05-21T07:50:53;18.10;94.60
70074;DHT22;57445;51.058;3.698;2023-05-21T07:53:21;18.30;94.40
70074;DHT22;57445;51.058;3.698;2023-05-21T07:55:53;18.30;94.20
70074;DHT22;57445;51.058;3.698;2023-05-21T07:58:25;18.30;94.50
70074;DHT22;57445;51.058;3.698;2023-05-21T08:00:55;18.30;94.30
70074;DHT22;57445;51.058;3.698;2023-05-21T08:03:25;18.50;94.20
70074;DHT22;57445;51.058;3.698;2023-05-21T08:05:52;18.30;94.30
70074;DHT22;57445;51.058;3.698;2023-05-21T08:08:20;18.40;93.70
70074;DHT22;57445;51.058;3.698;2023-05-21T08:10:48;18.50;93.70
70074;DHT22;57445;51.058;3.698;2023-05-21T08:13:16;18.40;93.20
70074;DHT22;57445;51.058;3.698;2023-05-21T08:15:43;18.50;93.10
70074;DHT22;57445;51.058;3.698;2023-05-21T08:18:12;18.50;92.80
70074;DHT22;57445;51.058;3.698;2023-05-21T08:20:42;18.40;92.70
70074;DHT22;57445;51.058;3.698;2023-05-21T08:23:10;18.30;93.00
70074;DHT22;57445;51.058;3.698;2023-05-21T08:25:42;18.20;93.30
70074;DHT22;57445;51.058;3.698;2023-05-21T08:28:10;18.20;93.10
70074;DHT22;57445;51.058;3.698;2023-05-21T08:30:42;18.20;93.20
70074;DHT22;57445;51.058;3.698;2023-05-21T08:33:09;18.50;93.00
70074;DHT22;57445;51.058;3.698;2023-05-21T08:35:38;18.80;92.30
70074;DHT22;57445;51.058;3.698;2023-05-21T08:38:06;18.70;92.40
70074;DHT22;57445;51.058;3.698;2023-05-21T08:40:33;18.30;92.90
70074;DHT22;57445;51.058;3.698;2023-05-21T08:43:06;18.20;93.30
70074;DHT22;57445;51.058;3.698;2023-05-21T08:45:39;18.30;93.50
70074;DHT22;57445;51.058;3.698;2023-05-21T08:48:08;18.60;92.90
70074;DHT22;57445;51.058;3.698;2023-05-21T08:50:36;18.70;92.90
70074;DHT22;57445;51.058;3.698;2023-05-21T08:53:10;18.60;92.70
70074;DHT22;57445;51.058;3.698;2023-05-21T08:55:37;18.50;92.70
70074;DHT22;57445;51.058;3.698;2023-05-21T08:58:08;18.30;92.90
70074;DHT22;57445;51.058;3.698;2023-05-21T09:00:36;18.50;92.90
70074;DHT22;57445;51.058;3.698;2023-05-21T09:03:09;18.50;92.90
70074;DHT22;57445;51.058;3.698;2023-05-21T09:05:39;18.50;92.90
70074;DHT22;57445;51.058;3.698;2023-05-21T09:08:11;19.00;92.50
70074;DHT22;57445;51.058;3.698;2023-05-21T09:10:45;19.10;92.30
70074;DHT22;57445;51.058;3.698;2023-05-21T09:13:14;19.40;92.40
70074;DHT22;57445;51.058;3.698;2023-05-21T09:15:43;19.80;91.70
70074;DHT22;57445;51.058;3.698;2023-05-21T09:18:10;20.30;90.90
70074;DHT22;57445;51.058;3.698;2023-05-21T09:20:38;20.20;90.60
70074;DHT22;57445;51.058;3.698;2023-05-21T09:23:15;20.20;90.80
70074;DHT22;57445;51.058;3.698;2023-05-21T09:25:44;19.70;91.20
70074;DHT22;57445;51.058;3.698;2023-05-21T09:28:11;19.20;92.20
70074;DHT22;57445;51.058;3.698;2023-05-21T09:30:42;19.20;92.40
70074;DHT22;57445;51.058;3.698;2023-05-21T09:33:11;19.20;92.30
70074;DHT22;57445;51.058;3.698;2023-05-21T09:35:44;19.20;92.50
70074;DHT22;57445;51.058;3.698;2023-05-21T09:38:14;19.60;92.00
70074;DHT22;57445;51.058;3.698;2023-05-21T09:40:45;19.90;91.50
70074;DHT22;57445;51.058;3.698;2023-05-21T09:43:13;20.00;91.40
70074;DHT22;57445;51.058;3.698;2023-05-21T09:45:51;20.10;91.30
70074;DHT22;57445;51.058;3.698;2023-05-21T09:48:31;20.00;91.20
70074;DHT22;57445;51.058;3.698;2023-05-21T09:51:08;19.90;91.70
70074;DHT22;57445;51.058;3.698;2023-05-21T09:53:43;19.80;91.90
70074;DHT22;57445;51.058;3.698;2023-05-21T09:56:11;19.90;91.90
70074;DHT22;57445;51.058;3.698;2023-05-21T09:58:43;20.00;91.60
70074;DHT22;57445;51.058;3.698;2023-05-21T10:01:11;20.20;91.90
70074;DHT22;57445;51.058;3.698;2023-05-21T10:03:39;20.70;90.90
70074;DHT22;57445;51.058;3.698;2023-05-21T10:06:07;20.60;90.90
70074;DHT22;57445;51.058;3.698;2023-05-21T10:08:35;20.90;90.60
70074;DHT22;57445;51.058;3.698;2023-05-21T10:11:14;20.80;90.70
70074;DHT22;57445;51.058;3.698;2023-05-21T10:13:47;21.00;90.50
70074;DHT22;57445;51.058;3.698;2023-05-21T10:16:16;20.70;90.80
70074;DHT22;57445;51.058;3.698;2023-05-21T10:18:44;21.10;90.50
70074;DHT22;57445;51.058;3.698;2023-05-21T10:21:14;21.20;90.00
70074;DHT22;57445;51.058;3.698;2023-05-21T10:23:42;21.20;90.30
70074;DHT22;57445;51.058;3.698;2023-05-21T10:26:10;21.00;90.30
70074;DHT22;57445;51.058;3.698;2023-05-21T10:28:42;21.00;90.60
70074;DHT22;57445;51.058;3.698;2023-05-21T10:31:10;20.80;90.90
70074;DHT22;57445;51.058;3.698;2023-05-21T10:33:38;20.30;91.40
70074;DHT22;57445;51.058;3.698;2023-05-21T10:36:11;20.30;91.40
70074;DHT22;57445;51.058;3.698;2023-05-21T10:38:47;20.30;91.50
70074;DHT22;57445;51.058;3.698;2023-05-21T10:41:15;20.50;91.40
70074;DHT22;57445;51.058;3.698;2023-05-21T10:43:46;20.40;91.50
70074;DHT22;57445;51.058;3.698;2023-05-21T10:46:20;20.80;91.10
70074;DHT22;57445;51.058;3.698;2023-05-21T10:48:54;20.80;90.90
70074;DHT22;57445;51.058;3.698;2023-05-21T10:51:23;20.50;91.40
70074;DHT22;57445;51.058;3.698;2023-05-21T10:54:02;20.60;91.20
70074;DHT22;57445;51.058;3.698;2023-05-21T10:56:37;20.60;91.40
70074;DHT22;57445;51.058;3.698;2023-05-21T10:59:08;20.60;91.30
70074;DHT22;57445;51.058;3.698;2023-05-21T11:01:45;20.70;91.30
70074;DHT22;57445;51.058;3.698;2023-05-21T11:04:13;20.90;91.10
70074;DHT22;57445;51.058;3.698;2023-05-21T11:06:45;20.80;91.10
70074;DHT22;57445;51.058;3.698;2023-05-21T11:09:13;21.40;90.40
70074;DHT22;57445;51.058;3.698;2023-05-21T11:11:43;21.60;90.10
70074;DHT22;57445;51.058;3.698;2023-05-21T11:14:27;21.70;89.50
70074;DHT22;57445;51.058;3.698;2023-05-21T11:16:56;21.30;90.30
70074;DHT22;57445;51.058;3.698;2023-05-21T11:19:33;20.90;90.90
70074;DHT22;57445;51.058;3.698;2023-05-21T11:22:05;20.80;91.00
70074;DHT22;57445;51.058;3.698;2023-05-21T11:24:35;20.70;91.40
70074;DHT22;57445;51.058;3.698;2023-05-21T11:27:09;21.00;91.20
70074;DHT22;57445;51.058;3.698;2023-05-21T11:29:44;21.50;90.40
70074;DHT22;57445;51.058;3.698;2023-05-21T11:32:13;22.10;88.90
70074;DHT22;57445;51.058;3.698;2023-05-21T11:34:43;21.90;89.00
70074;DHT22;57445;51.058;3.698;2023-05-21T11:37:22;21.80;89.80
70074;DHT22;57445;51.058;3.698;2023-05-21T11:39:51;22.20;88.80
70074;DHT22;57445;51.058;3.698;2023-05-21T11:42:27;22.30;87.70
70074;DHT22;57445;51.058;3.698;2023-05-21T11:44:56;22.00;88.30
70074;DHT22;57445;51.058;3.698;2023-05-21T11:47:25;21.60;89.30
70074;DHT22;57445;51.058;3.698;2023-05-21T11:49:53;21.60;89.70
70074;DHT22;57445;51.058;3.698;2023-05-21T11:52:20;21.30;90.10
70074;DHT22;57445;51.058;3.698;2023-05-21T11:54:53;21.20;90.40
70074;DHT22;57445;51.058;3.698;2023-05-21T11:57:26;21.60;89.70
70074;DHT22;57445;51.058;3.698;2023-05-21T11:59:58;21.90;89.50
70074;DHT22;57445;51.058;3.698;2023-05-21T12:02:26;21.80;89.00
70074;DHT22;57445;51.058;3.698;2023-05-21T12:04:56;21.90;89.00
70074;DHT22;57445;51.058;3.698;2023-05-21T12:07:29;21.80;89.10
70074;DHT22;57445;51.058;3.698;2023-05-21T12:09:57;21.20;90.20
70074;DHT22;57445;51.058;3.698;2023-05-21T12:12:25;20.80;90.90
70074;DHT22;57445;51.058;3.698;2023-05-21T12:14:53;20.70;91.10
70074;DHT22;57445;51.058;3.698;2023-05-21T12:17:22;20.90;91.00
70074;DHT22;57445;51.058;3.698;2023-05-21T12:19:51;20.60;91.30
70074;DHT22;57445;51.058;3.698;2023-05-21T12:22:19;20.60;91.90
70074;DHT22;57445;51.058;3.698;2023-05-21T12:24:46;20.50;92.30
70074;DHT22;57445;51.058;3.698;2023-05-21T12:27:15;20.70;92.10
70074;DHT22;57445;51.058;3.698;2023-05-21T12:29:43;20.40;92.60
70074;DHT22;57445;51.058;3.698;2023-05-21T12:32:12;20.60;91.90
70074;DHT22;57445;51.058;3.698;2023-05-21T12:34:42;20.90;91.60
70074;DHT22;57445;51.058;3.698;2023-05-21T12:37:11;21.20;91.40
70074;DHT22;57445;51.058;3.698;2023-05-21T12:39:39;21.40;91.10
70074;DHT22;57445;51.058;3.698;2023-05-21T12:42:07;21.30;91.00
70074;DHT22;57445;51.058;3.698;2023-05-21T12:44:36;21.00;91.70
70074;DHT22;57445;51.058;3.698;2023-05-21T12:47:04;21.00;91.60
70074;DHT22;57445;51.058;3.698;2023-05-21T12:49:33;21.30;91.40
70074;DHT22;57445;51.058;3.698;2023-05-21T12:52:03;21.40;91.00
70074;DHT22;57445;51.058;3.698;2023-05-21T12:54:35;20.80;91.80
70074;DHT22;57445;51.058;3.698;2023-05-21T12:57:06;21.00;91.70
70074;DHT22;57445;51.058;3.698;2023-05-21T12:59:44;21.10;91.60
70074;DHT22;57445;51.058;3.698;2023-05-21T13:02:14;21.00;91.70
70074;DHT22;57445;51.058;3.698;2023-05-21T13:04:42;21.00;91.50
70074;DHT22;57445;51.058;3.698;2023-05-21T13:07:11;21.30;91.40
70074;DHT22;57445;51.058;3.698;2023-05-21T13:09:39;21.50;91.00
70074;DHT22;57445;51.058;3.698;2023-05-21T13:12:07;22.00;90.30
70074;DHT22;57445;51.058;3.698;2023-05-21T13:14:34;21.60;90.70
70074;DHT22;57445;51.058;3.698;2023-05-21T13:17:06;21.60;90.80
70074;DHT22;57445;51.058;3.698;2023-05-21T13:19:34;21.80;90.60
70074;DHT22;57445;51.058;3.698;2023-05-21T13:22:01;21.80;90.20
70074;DHT22;57445;51.058;3.698;2023-05-21T13:24:31;21.70;90.30
70074;DHT22;57445;51.058;3.698;2023-05-21T13:27:03;21.70;90.40
70074;DHT22;57445;51.058;3.698;2023-05-21T13:29:31;21.90;90.20
70074;DHT22;57445;51.058;3.698;2023-05-21T13:31:59;22.00;89.50
70074;DHT22;57445;51.058;3.698;2023-05-21T13:34:26;21.50;90.50
70074;DHT22;57445;51.058;3.698;2023-05-21T13:36:55;21.30;90.90
70074;DHT22;57445;51.058;3.698;2023-05-21T13:39:23;21.30;90.80
70074;DHT22;57445;51.058;3.698;2023-05-21T13:41:54;21.50;90.80
70074;DHT22;57445;51.058;3.698;2023-05-21T13:44:21;21.70;90.30
70074;DHT22;57445;51.058;3.698;2023-05-21T13:46:54;22.20;89.60
70074;DHT22;57445;51.058;3.698;2023-05-21T13:49:21;22.00;89.80
70074;DHT22;57445;51.058;3.698;2023-05-21T13:51:49;22.00;89.50
70074;DHT22;57445;51.058;3.698;2023-05-21T13:54:16;22.00;89.40
70074;DHT22;57445;51.058;3.698;2023-05-21T13:56:44;21.90;89.50
70074;DHT22;57445;51.058;3.698;2023-05-21T13:59:13;22.00;89.90
70074;DHT22;57445;51.058;3.698;2023-05-21T14:01:45;22.20;89.20
70074;DHT22;57445;51.058;3.698;2023-05-21T14:04:13;22.10;89.50
70074;DHT22;57445;51.058;3.698;2023-05-21T14:06:40;22.40;88.60
70074;DHT22;57445;51.058;3.698;2023-05-21T14:09:08;22.40;89.30
70074;DHT22;57445;51.058;3.698;2023-05-21T14:11:36;22.90;87.40
70074;DHT22;57445;51.058;3.698;2023-05-21T14:14:03;23.10;86.30
70074;DHT22;57445;51.058;3.698;2023-05-21T14:16:36;22.80;86.90
70074;DHT22;57445;51.058;3.698;2023-05-21T14:19:06;22.20;89.10
70074;DHT22;57445;51.058;3.698;2023-05-21T14:21:33;22.60;88.20
70074;DHT22;57445;51.058;3.698;2023-05-21T14:24:01;22.30;88.20
70074;DHT22;57445;51.058;3.698;2023-05-21T14:26:29;22.00;88.90
70074;DHT22;57445;51.058;3.698;2023-05-21T14:29:01;22.20;89.10
70074;DHT22;57445;51.058;3.698;2023-05-21T14:31:28;22.10;88.70
70074;DHT22;57445;51.058;3.698;2023-05-21T14:33:58;22.00;88.90
70074;DHT22;57445;51.058;3.698;2023-05-21T14:36:25;21.70;89.40
70074;DHT22;57445;51.058;3.698;2023-05-21T14:38:57;21.60;90.00
70074;DHT22;57445;51.058;3.698;2023-05-21T14:41:30;21.80;89.50
70074;DHT22;57445;51.058;3.698;2023-05-21T14:44:02;21.90;89.40
70074;DHT22;57445;51.058;3.698;2023-05-21T14:46:30;22.20;88.70
70074;DHT22;57445;51.058;3.698;2023-05-21T14:48:59;21.80;89.00
70074;DHT22;57445;51.058;3.698;2023-05-21T14:51:26;21.50;90.00
70074;DHT22;57445;51.058;3.698;2023-05-21T14:53:54;21.40;90.10
70074;DHT22;57445;51.058;3.698;2023-05-21T14:56:27;21.20;90.60
70074;DHT22;57445;51.058;3.698;2023-05-21T14:58:55;21.30;90.40
70074;DHT22;57445;51.058;3.698;2023-05-21T15:01:23;21.40;90.10
70074;DHT22;57445;51.058;3.698;2023-05-21T15:03:50;21.50;89.50
70074;DHT22;57445;51.058;3.698;2023-05-21T15:06:19;21.40;89.70
70074;DHT22;57445;51.058;3.698;2023-05-21T15:08:47;21.40;90.00
70074;DHT22;57445;51.058;3.698;2023-05-21T15:11:15;21.60;89.80
70074;DHT22;57445;51.058;3.698;2023-05-21T15:13:47;21.50;90.20
70074;DHT22;57445;51.058;3.698;2023-05-21T15:16:19;21.60;89.30
70074;DHT22;57445;51.058;3.698;2023-05-21T15:18:47;21.70;89.30
70074;DHT22;57445;51.058;3.698;2023-05-21T15:21:15;21.60;89.30
70074;DHT22;57445;51.058;3.698;2023-05-21T15:23:44;21.40;89.60
70074;DHT22;57445;51.058;3.698;2023-05-21T15:26:12;21.30;90.00
70074;DHT22;57445;51.058;3.698;2023-05-21T15:28:41;21.30;89.90
70074;DHT22;57445;51.058;3.698;2023-05-21T15:31:08;21.40;89.60
70074;DHT22;57445;51.058;3.698;2023-05-21T15:33:36;21.30;89.90
70074;DHT22;57445;51.058;3.698;2023-05-21T15:36:03;21.10;90.00
70074;DHT22;57445;51.058;3.698;2023-05-21T15:38:31;21.20;89.70
70074;DHT22;57445;51.058;3.698;2023-05-21T15:41:05;21.30;89.30